Time;durP1;ratioP1;P1;durP2;ratioP2;P2;SDS_P1;SDS_P2;PMS_P1;PMS_P2;Temp;Humidity;BMP_temperature;BMP_pressure;BME280_temperature;BME280_humidity;BME280_pressure;Samples;Min_cycle;Max_cycle;Signal;HPM_P1;HPM_P2
2022/01/29 00:01:31;;;;;;;1.77;0.40;;;2.60;86.90;;;;;;5003494;28;20030;-74
2022/01/29 00:03:57;;;;;;;0.73;0.50;;;2.60;86.90;;;;;;5001130;28;20056;-74
2022/01/29 00:06:23;;;;;;;0.63;0.40;;;2.60;87.40;;;;;;5002606;28;20042;-74
2022/01/29 00:08:49;;;;;;;3.33;0.68;;;2.60;87.70;;;;;;5002698;28;20041;-74
2022/01/29 00:11:16;;;;;;;1.88;0.60;;;2.50;86.80;;;;;;5002640;28;20403;-74
2022/01/29 00:13:42;;;;;;;0.60;0.30;;;2.50;86.80;;;;;;5002228;28;20030;-74
2022/01/29 00:16:09;;;;;;;3.10;0.70;;;2.50;86.50;;;;;;5002641;28;20044;-74
2022/01/29 00:18:35;;;;;;;0.85;0.38;;;2.50;86.50;;;;;;5003651;28;20126;-74
2022/01/29 00:21:02;;;;;;;1.45;0.47;;;2.40;86.50;;;;;;5019186;28;20445;-75
2022/01/29 00:23:28;;;;;;;1.70;0.65;;;2.50;86.70;;;;;;5002470;28;20045;-74
2022/01/29 00:25:53;;;;;;;1.00;0.30;;;2.50;85.50;;;;;;5004397;28;20064;-75
2022/01/29 00:28:19;;;;;;;2.17;0.47;;;2.50;86.20;;;;;;5002181;28;20400;-74
2022/01/29 00:30:45;;;;;;;1.42;0.40;;;2.50;86.50;;;;;;5001545;28;20065;-75
2022/01/29 00:33:11;;;;;;;1.05;0.47;;;2.60;86.30;;;;;;5005131;28;20029;-75
2022/01/29 00:35:38;;;;;;;2.83;0.55;;;2.60;85.80;;;;;;5001248;28;20014;-75
2022/01/29 00:38:04;;;;;;;0.90;0.43;;;2.50;86.00;;;;;;5004557;28;20042;-75
2022/01/29 00:40:31;;;;;;;1.63;0.60;;;2.60;84.60;;;;;;5001472;28;20025;-75
2022/01/29 00:42:58;;;;;;;1.95;0.65;;;2.70;85.30;;;;;;5003147;28;20032;-76
2022/01/29 00:45:23;;;;;;;0.82;0.40;;;2.70;84.80;;;;;;5002496;28;20105;-74
2022/01/29 00:47:49;;;;;;;0.68;0.60;;;2.70;84.70;;;;;;4999948;28;20571;-75
2022/01/29 00:50:15;;;;;;;1.35;0.60;;;2.50;85.60;;;;;;5000540;28;20033;-75
2022/01/29 00:52:41;;;;;;;3.28;0.55;;;2.50;86.10;;;;;;5004832;28;20036;-76
2022/01/29 00:55:09;;;;;;;3.75;0.88;;;2.60;85.80;;;;;;5003184;28;20110;-76
2022/01/29 00:57:37;;;;;;;2.05;0.70;;;2.50;85.50;;;;;;5001850;28;20053;-76
2022/01/29 01:00:08;;;;;;;1.70;0.63;;;2.60;84.90;;;;;;5000293;28;20069;-76
2022/01/29 01:02:33;;;;;;;1.35;0.82;;;2.60;85.70;;;;;;5003164;28;20034;-76
2022/01/29 01:04:59;;;;;;;1.05;0.60;;;2.60;85.00;;;;;;4998946;28;20069;-74
2022/01/29 01:07:25;;;;;;;2.85;0.73;;;2.60;84.30;;;;;;5002636;28;20037;-74
2022/01/29 01:09:50;;;;;;;3.83;1.75;;;2.60;85.30;;;;;;5002943;28;20037;-76
2022/01/29 01:12:16;;;;;;;2.10;0.80;;;2.50;85.40;;;;;;5002286;28;20580;-75
2022/01/29 01:14:42;;;;;;;2.45;0.80;;;2.50;85.40;;;;;;5002634;28;20034;-76
2022/01/29 01:17:07;;;;;;;3.42;0.95;;;2.40;84.80;;;;;;5001272;28;20026;-74
2022/01/29 01:19:33;;;;;;;1.75;0.45;;;2.40;85.30;;;;;;5001558;28;20184;-76
2022/01/29 01:21:59;;;;;;;1.55;0.47;;;2.40;84.80;;;;;;5001335;28;20034;-74
2022/01/29 01:24:24;;;;;;;1.90;0.30;;;2.50;84.50;;;;;;5003456;28;20512;-74
2022/01/29 01:26:51;;;;;;;2.83;1.67;;;2.50;85.50;;;;;;4995143;28;20045;-73
2022/01/29 01:29:17;;;;;;;3.70;0.82;;;2.50;86.30;;;;;;4998845;28;20625;-75
2022/01/29 01:31:44;;;;;;;1.65;0.60;;;2.50;86.30;;;;;;5001179;28;20034;-76
2022/01/29 01:34:15;;;;;;;1.90;0.65;;;2.50;86.00;;;;;;5002745;28;20507;-75
2022/01/29 01:36:49;;;;;;;2.28;0.70;;;2.50;86.10;;;;;;4999586;28;20038;-74
2022/01/29 01:39:19;;;;;;;1.95;0.45;;;2.60;85.00;;;;;;5004176;28;20034;-73
2022/01/29 01:41:55;;;;;;;2.97;0.70;;;2.50;85.20;;;;;;5001959;28;20026;-76
2022/01/29 01:44:20;;;;;;;3.65;0.60;;;2.50;86.10;;;;;;4999113;28;20673;-76
2022/01/29 01:46:46;;;;;;;1.70;0.50;;;2.50;86.60;;;;;;5001526;28;20033;-73
2022/01/29 01:49:12;;;;;;;2.47;0.70;;;2.50;86.10;;;;;;5005018;28;20041;-74
2022/01/29 01:51:38;;;;;;;1.85;0.70;;;2.60;85.60;;;;;;5000447;28;20073;-74
2022/01/29 01:54:04;;;;;;;2.42;0.77;;;2.60;86.80;;;;;;5000529;28;20137;-74
2022/01/29 01:56:29;;;;;;;2.70;0.70;;;2.60;87.70;;;;;;5000071;28;20070;-73
2022/01/29 01:58:58;;;;;;;2.20;0.90;;;2.60;87.90;;;;;;5001726;28;20093;-77
2022/01/29 02:01:23;;;;;;;4.05;0.95;;;2.60;89.20;;;;;;4998815;28;20404;-77
2022/01/29 02:03:49;;;;;;;4.00;0.90;;;2.50;90.10;;;;;;4999077;28;20033;-75
2022/01/29 02:06:15;;;;;;;2.55;0.82;;;2.40;90.40;;;;;;4998842;28;20084;-74
2022/01/29 02:08:41;;;;;;;2.78;0.80;;;2.40;90.60;;;;;;5000072;28;20758;-74
2022/01/29 02:11:08;;;;;;;1.50;0.88;;;2.30;90.80;;;;;;5000478;28;20038;-75
2022/01/29 02:13:34;;;;;;;2.70;0.93;;;2.30;91.00;;;;;;5000051;28;20019;-75
2022/01/29 02:16:01;;;;;;;3.80;0.88;;;2.30;90.80;;;;;;5003147;28;20570;-77
2022/01/29 02:18:27;;;;;;;2.67;0.60;;;2.30;91.10;;;;;;5005308;28;20038;-75
2022/01/29 02:20:53;;;;;;;2.75;0.73;;;2.30;91.10;;;;;;5002337;28;20038;-76
2022/01/29 02:23:19;;;;;;;2.55;0.68;;;2.30;91.20;;;;;;5007467;28;20057;-76
2022/01/29 02:25:49;;;;;;;3.42;1.02;;;2.20;91.40;;;;;;5004462;28;20026;-75
2022/01/29 02:28:21;;;;;;;4.97;0.90;;;2.30;91.50;;;;;;5005508;28;20504;-75
2022/01/29 02:30:57;;;;;;;2.67;1.02;;;2.30;91.40;;;;;;5005268;28;20038;-75
2022/01/29 02:33:23;;;;;;;2.08;1.30;;;2.30;91.30;;;;;;5005243;28;20030;-75
2022/01/29 02:35:51;;;;;;;2.45;0.82;;;2.30;91.40;;;;;;5000918;28;20444;-75
2022/01/29 02:38:20;;;;;;;3.40;1.50;;;2.40;91.40;;;;;;5000489;28;20120;-75
2022/01/29 02:40:49;;;;;;;1.70;0.70;;;2.40;91.40;;;;;;5003256;28;20412;-76
2022/01/29 02:43:17;;;;;;;2.13;0.70;;;2.40;91.30;;;;;;5001025;28;20109;-75
2022/01/29 02:45:44;;;;;;;2.13;0.80;;;2.30;91.30;;;;;;5004052;28;20436;-75
2022/01/29 02:48:11;;;;;;;5.40;1.10;;;2.20;91.50;;;;;;5005128;28;20034;-75
2022/01/29 02:50:37;;;;;;;5.18;0.80;;;2.30;91.50;;;;;;5004374;28;20026;-75
2022/01/29 02:53:04;;;;;;;2.15;0.88;;;2.30;91.20;;;;;;5004229;28;20373;-75
2022/01/29 02:55:30;;;;;;;7.90;4.93;;;2.30;91.30;;;;;;5002883;28;20049;-75
2022/01/29 02:57:56;;;;;;;12.20;7.80;;;2.30;91.10;;;;;;5004771;28;20087;-76
2022/01/29 03:00:22;;;;;;;2.10;1.02;;;2.40;91.10;;;;;;5005280;28;20034;-73
2022/01/29 03:02:48;;;;;;;2.75;1.85;;;2.40;90.90;;;;;;4998607;28;20084;-74
2022/01/29 03:05:14;;;;;;;1.48;0.95;;;2.50;91.10;;;;;;5004085;28;20341;-74
2022/01/29 03:07:39;;;;;;;2.30;1.00;;;2.40;91.00;;;;;;5002184;28;20025;-73
2022/01/29 03:10:07;;;;;;;2.25;1.13;;;2.40;91.10;;;;;;5002547;28;20505;-74
2022/01/29 03:12:33;;;;;;;1.95;1.17;;;2.40;91.20;;;;;;5003533;28;20038;-74
2022/01/29 03:14:59;;;;;;;3.85;1.70;;;2.40;91.10;;;;;;5001403;28;20076;-74
2022/01/29 03:17:25;;;;;;;2.67;1.75;;;2.50;90.80;;;;;;5002199;28;20138;-73
2022/01/29 03:19:52;;;;;;;1.85;1.05;;;2.50;90.40;;;;;;4997177;28;20046;-76
2022/01/29 03:22:18;;;;;;;3.03;1.38;;;2.60;90.30;;;;;;5002235;28;20041;-74
2022/01/29 03:24:44;;;;;;;1.95;0.68;;;2.70;89.90;;;;;;5004573;28;20432;-74
2022/01/29 03:27:10;;;;;;;2.80;1.38;;;2.80;89.70;;;;;;5003695;28;20037;-74
2022/01/29 03:29:35;;;;;;;1.60;0.50;;;2.80;89.00;;;;;;5002668;28;20092;-75
2022/01/29 03:32:01;;;;;;;2.00;0.57;;;2.90;87.30;;;;;;5003114;28;20044;-74
2022/01/29 03:34:27;;;;;;;3.38;0.65;;;3.00;87.10;;;;;;5004944;28;20030;-74
2022/01/29 03:36:55;;;;;;;2.60;0.75;;;3.10;86.60;;;;;;5001611;28;20037;-75
2022/01/29 03:39:22;;;;;;;2.67;0.70;;;3.20;86.00;;;;;;5003842;28;20061;-74
2022/01/29 03:41:48;;;;;;;1.33;0.60;;;3.30;84.50;;;;;;5002452;28;20060;-75
2022/01/29 03:44:14;;;;;;;2.22;0.88;;;3.30;84.50;;;;;;5003804;28;20108;-74
2022/01/29 03:46:39;;;;;;;1.70;0.93;;;3.30;84.70;;;;;;5001879;28;20060;-74
2022/01/29 03:49:05;;;;;;;2.38;0.60;;;3.40;84.60;;;;;;5002307;28;20105;-74
2022/01/29 03:51:31;;;;;;;3.85;0.90;;;3.30;84.20;;;;;;5002499;28;20038;-74
2022/01/29 03:53:56;;;;;;;1.92;0.80;;;3.40;84.30;;;;;;5000906;28;20056;-74
2022/01/29 03:56:22;;;;;;;3.53;0.95;;;3.40;83.70;;;;;;5003364;28;20038;-74
2022/01/29 03:58:48;;;;;;;4.50;0.70;;;3.40;83.80;;;;;;5001342;28;20072;-74
2022/01/29 04:01:14;;;;;;;1.70;0.45;;;3.40;81.90;;;;;;5000540;28;20084;-74
2022/01/29 04:03:40;;;;;;;2.58;0.50;;;3.40;82.40;;;;;;5003217;28;20515;-74
2022/01/29 04:06:05;;;;;;;2.78;1.42;;;3.50;81.90;;;;;;5002555;28;20037;-73
2022/01/29 04:08:33;;;;;;;3.13;1.95;;;3.50;82.20;;;;;;4998002;28;20400;-74
2022/01/29 04:10:59;;;;;;;4.43;1.55;;;3.50;81.70;;;;;;5003474;28;20029;-74
2022/01/29 04:13:27;;;;;;;1.30;0.60;;;3.50;81.20;;;;;;5001960;28;20036;-74
2022/01/29 04:15:52;;;;;;;2.28;1.38;;;3.40;81.40;;;;;;5003419;28;20691;-74
2022/01/29 04:18:21;;;;;;;3.08;1.67;;;3.30;80.80;;;;;;5001903;28;20038;-73
2022/01/29 04:20:46;;;;;;;2.33;0.63;;;3.10;81.70;;;;;;5002220;28;20041;-74
2022/01/29 04:23:12;;;;;;;2.25;1.08;;;3.10;82.30;;;;;;5001535;28;20038;-74
2022/01/29 04:25:38;;;;;;;3.78;1.35;;;2.90;83.80;;;;;;5003178;28;20033;-74
2022/01/29 04:28:05;;;;;;;2.72;0.80;;;2.90;84.30;;;;;;5000613;28;20044;-74
2022/01/29 04:30:33;;;;;;;0.85;0.50;;;2.90;83.00;;;;;;5002128;28;20034;-74
2022/01/29 04:33:15;;;;;;;5.32;2.28;;;2.70;80.80;;;;;;5001490;28;20522;-74
2022/01/29 04:35:40;;;;;;;2.70;1.17;;;2.80;82.10;;;;;;5003347;28;20030;-74
2022/01/29 04:38:06;;;;;;;2.47;0.85;;;2.80;81.20;;;;;;4999227;28;20029;-74
2022/01/29 04:40:33;;;;;;;1.85;0.80;;;3.00;81.20;;;;;;5002186;28;20026;-74
2022/01/29 04:42:59;;;;;;;0.73;0.47;;;3.10;81.10;;;;;;5000595;28;20034;-74
2022/01/29 04:45:25;;;;;;;1.70;0.52;;;3.20;80.90;;;;;;5003593;28;20092;-73
2022/01/29 04:47:51;;;;;;;2.40;0.70;;;3.20;80.60;;;;;;5002744;28;20076;-74
2022/01/29 04:50:16;;;;;;;1.83;0.75;;;3.20;79.60;;;;;;5003449;28;20061;-74
2022/01/29 04:52:42;;;;;;;7.05;0.90;;;3.20;79.70;;;;;;5001807;28;20037;-74
2022/01/29 04:55:09;;;;;;;1.60;0.60;;;3.20;80.50;;;;;;5001151;28;20042;-73
2022/01/29 04:57:37;;;;;;;3.90;1.02;;;3.20;78.80;;;;;;5000739;28;20099;-75
2022/01/29 05:00:07;;;;;;;3.30;0.60;;;3.10;79.90;;;;;;5004996;28;20039;-74
2022/01/29 05:02:34;;;;;;;3.72;0.90;;;3.10;80.40;;;;;;5002810;28;20539;-74
2022/01/29 05:05:00;;;;;;;3.88;0.80;;;3.10;80.30;;;;;;5003073;28;20060;-74
2022/01/29 05:07:26;;;;;;;5.25;3.72;;;3.20;80.50;;;;;;5001923;28;20057;-75
2022/01/29 05:09:52;;;;;;;3.45;1.17;;;3.10;79.80;;;;;;4999881;28;20109;-74
2022/01/29 05:12:24;;;;;;;3.22;1.35;;;3.00;80.40;;;;;;5001904;28;20078;-74
2022/01/29 05:15:14;;;;;;;1.55;0.98;;;2.90;79.70;;;;;;5002695;28;20046;-74
2022/01/29 05:28:34;;;;;;;1.80;0.88;;;3.10;79.60;;;;;;5000955;28;20036;-74
2022/01/29 05:31:00;;;;;;;2.95;1.02;;;3.10;80.10;;;;;;5000670;28;20489;-77
2022/01/29 05:33:25;;;;;;;3.45;0.93;;;3.10;79.50;;;;;;5002621;28;20119;-76
2022/01/29 05:35:51;;;;;;;1.38;0.77;;;3.10;79.60;;;;;;5001349;28;20053;-76
2022/01/29 05:38:17;;;;;;;3.85;1.60;;;3.00;79.00;;;;;;4999003;28;20046;-77
2022/01/29 05:40:42;;;;;;;3.78;1.73;;;2.90;79.80;;;;;;4998721;28;20100;-76
2022/01/29 05:43:08;;;;;;;2.10;0.90;;;2.90;79.90;;;;;;5000905;28;20037;-76
2022/01/29 05:45:34;;;;;;;3.15;0.85;;;2.90;79.70;;;;;;5002434;28;20035;-77
2022/01/29 05:47:59;;;;;;;1.77;0.57;;;2.80;79.90;;;;;;5000730;28;20048;-76
2022/01/29 05:50:25;;;;;;;7.95;0.70;;;2.80;79.80;;;;;;5019814;28;20037;-76
2022/01/29 05:52:50;;;;;;;5.00;0.88;;;2.90;79.80;;;;;;5007226;28;20037;-77
2022/01/29 05:55:16;;;;;;;2.78;1.00;;;2.90;79.80;;;;;;5006451;28;20058;-76
2022/01/29 05:57:42;;;;;;;2.15;1.00;;;3.00;79.90;;;;;;5002230;28;20123;-76
2022/01/29 06:00:08;;;;;;;2.30;0.68;;;3.00;79.90;;;;;;5004772;28;20061;-77
2022/01/29 06:02:33;;;;;;;3.85;1.10;;;3.00;80.10;;;;;;5004470;28;20523;-76
2022/01/29 06:04:59;;;;;;;3.03;1.25;;;3.10;79.70;;;;;;5003782;28;20038;-78
2022/01/29 06:07:25;;;;;;;2.80;1.27;;;3.10;79.40;;;;;;5003909;28;20034;-77
2022/01/29 06:09:50;;;;;;;3.55;1.33;;;3.10;79.10;;;;;;5003516;28;20069;-76
2022/01/29 06:12:16;;;;;;;4.13;1.10;;;3.10;79.60;;;;;;5004406;28;20526;-76
2022/01/29 06:14:41;;;;;;;3.10;1.38;;;3.20;79.80;;;;;;5004538;28;20030;-76
2022/01/29 06:17:07;;;;;;;3.33;1.13;;;3.20;79.50;;;;;;5008437;28;20514;-77
2022/01/29 06:19:33;;;;;;;3.33;1.30;;;3.30;79.40;;;;;;5002347;28;20108;-74
2022/01/29 06:21:59;;;;;;;4.20;1.25;;;3.30;78.90;;;;;;5006174;28;20033;-74
2022/01/29 06:24:24;;;;;;;6.60;1.10;;;3.40;78.70;;;;;;5004634;28;20113;-75
2022/01/29 06:26:50;;;;;;;3.72;1.10;;;3.40;78.80;;;;;;5007093;28;20080;-75
2022/01/29 06:29:15;;;;;;;2.35;1.25;;;3.40;78.40;;;;;;5006479;28;20117;-75
2022/01/29 06:31:41;;;;;;;2.60;1.40;;;3.40;78.30;;;;;;5007874;28;20117;-76
2022/01/29 06:34:07;;;;;;;3.20;1.15;;;3.30;78.20;;;;;;5007370;28;20025;-75
2022/01/29 06:36:32;;;;;;;3.08;1.00;;;3.20;79.20;;;;;;5004082;28;20041;-75
2022/01/29 06:38:58;;;;;;;2.92;1.45;;;3.20;77.70;;;;;;5003897;28;20034;-76
2022/01/29 06:41:23;;;;;;;5.72;2.95;;;3.20;76.50;;;;;;5004673;28;20411;-76
2022/01/29 06:43:49;;;;;;;3.65;1.73;;;3.30;77.20;;;;;;5003527;28;20053;-75
2022/01/29 06:46:15;;;;;;;10.65;2.17;;;3.30;77.00;;;;;;5005703;28;20026;-75
2022/01/29 06:48:40;;;;;;;6.97;1.70;;;3.40;77.00;;;;;;5006377;28;20220;-74
2022/01/29 06:51:06;;;;;;;4.78;1.10;;;3.40;76.30;;;;;;5005525;28;20042;-75
2022/01/29 06:53:32;;;;;;;4.07;1.52;;;3.50;76.10;;;;;;5004402;28;20026;-76
2022/01/29 06:55:57;;;;;;;3.30;1.20;;;3.60;75.60;;;;;;5004045;28;20030;-66
2022/01/29 06:58:23;;;;;;;2.80;1.20;;;3.60;75.30;;;;;;5019718;28;20069;-75
2022/01/29 07:00:49;;;;;;;2.03;1.17;;;3.70;74.40;;;;;;5005080;28;20104;-75
2022/01/29 07:03:14;;;;;;;10.65;4.88;;;3.80;74.20;;;;;;5002731;28;20030;-77
2022/01/29 07:05:40;;;;;;;8.50;3.25;;;3.70;74.00;;;;;;5002959;28;20480;-77
2022/01/29 07:08:05;;;;;;;1.98;1.00;;;3.70;74.20;;;;;;5002174;28;20038;-76
2022/01/29 07:10:31;;;;;;;2.15;0.93;;;3.70;70.40;;;;;;5000553;28;20045;-76
2022/01/29 07:12:57;;;;;;;2.78;0.98;;;3.70;70.20;;;;;;4999851;28;20026;-76
2022/01/29 07:15:23;;;;;;;2.15;0.90;;;3.70;70.20;;;;;;5002377;28;20100;-74
2022/01/29 07:17:48;;;;;;;5.03;1.90;;;3.60;72.10;;;;;;5003215;28;20397;-74
2022/01/29 07:20:14;;;;;;;5.00;1.08;;;3.60;72.50;;;;;;5003401;28;20553;-74
2022/01/29 07:22:40;;;;;;;4.30;1.98;;;3.70;71.90;;;;;;5005090;28;20524;-74
2022/01/29 07:25:06;;;;;;;3.47;1.38;;;3.80;72.00;;;;;;5001499;28;20126;-74
2022/01/29 07:27:32;;;;;;;4.35;1.58;;;4.10;71.60;;;;;;5002889;28;20018;-74
2022/01/29 07:29:58;;;;;;;12.43;4.78;;;4.20;70.00;;;;;;5002453;28;20052;-78
2022/01/29 07:32:23;;;;;;;12.13;7.20;;;4.40;69.10;;;;;;5005116;28;20080;-75
2022/01/29 07:34:49;;;;;;;8.35;4.97;;;4.60;69.20;;;;;;5003155;28;20097;-77
2022/01/29 07:37:15;;;;;;;2.97;1.30;;;4.80;68.00;;;;;;5003618;28;20043;-76
2022/01/29 07:39:41;;;;;;;1.17;0.60;;;5.00;64.00;;;;;;4997473;28;20121;-77
2022/01/29 07:42:07;;;;;;;1.77;1.20;;;5.20;60.90;;;;;;5004527;28;20040;-76
2022/01/29 07:44:32;;;;;;;8.55;4.05;;;5.40;60.80;;;;;;5000789;28;20033;-75
2022/01/29 07:46:58;;;;;;;1.65;1.08;;;5.50;61.40;;;;;;5003597;28;20558;-76
2022/01/29 07:49:27;;;;;;;2.40;1.02;;;5.40;56.40;;;;;;5003701;28;20045;-75
2022/01/29 07:51:52;;;;;;;2.75;1.20;;;5.30;55.80;;;;;;5005025;28;20122;-77
2022/01/29 07:54:19;;;;;;;2.30;1.30;;;5.40;52.50;;;;;;5003019;28;20030;-77
2022/01/29 07:56:45;;;;;;;1.73;1.00;;;5.50;54.00;;;;;;5004938;28;20025;-76
2022/01/29 07:59:10;;;;;;;2.05;0.70;;;5.30;58.20;;;;;;5000166;28;20073;-74
2022/01/29 08:01:36;;;;;;;6.00;3.03;;;5.10;53.80;;;;;;5003792;28;20037;-74
2022/01/29 08:04:01;;;;;;;9.07;3.90;;;5.10;57.30;;;;;;5003475;28;20044;-73
2022/01/29 08:06:29;;;;;;;11.43;5.47;;;5.10;57.20;;;;;;5004706;28;20488;-75
2022/01/29 08:08:55;;;;;;;1.95;1.50;;;5.20;58.20;;;;;;5002364;28;20121;-75
2022/01/29 08:11:21;;;;;;;9.82;5.10;;;5.20;59.40;;;;;;5003374;28;20065;-76
2022/01/29 08:13:46;;;;;;;16.70;7.70;;;5.00;60.50;;;;;;5002021;28;20089;-64
2022/01/29 08:16:16;;;;;;;5.68;2.95;;;5.00;61.60;;;;;;4999231;28;20513;-65
2022/01/29 08:18:43;;;;;;;11.43;5.35;;;4.90;58.80;;;;;;5002072;28;21075;-65
2022/01/29 08:21:15;;;;;;;7.95;4.22;;;5.00;60.80;;;;;;5003751;28;20133;-65
2022/01/29 08:23:41;;;;;;;8.25;3.95;;;5.00;62.30;;;;;;4998632;28;20045;-64
2022/01/29 08:26:07;;;;;;;8.98;4.82;;;5.10;63.60;;;;;;5002996;28;20049;-65
2022/01/29 08:28:33;;;;;;;8.50;3.78;;;5.20;63.50;;;;;;5003190;28;20121;-65
2022/01/29 08:30:59;;;;;;;3.47;2.17;;;5.40;63.20;;;;;;5002828;28;20116;-65
2022/01/29 08:33:24;;;;;;;4.57;2.65;;;5.60;58.60;;;;;;5004813;28;20574;-65
2022/01/29 08:35:50;;;;;;;2.40;1.40;;;5.40;59.90;;;;;;5001788;28;20030;-65
2022/01/29 08:38:16;;;;;;;4.72;1.23;;;5.20;65.20;;;;;;5001395;28;20045;-64
2022/01/29 08:40:41;;;;;;;3.78;1.70;;;5.10;66.20;;;;;;5001698;28;20080;-64
2022/01/29 08:43:08;;;;;;;4.68;1.27;;;4.70;66.10;;;;;;5003643;28;20044;-64
2022/01/29 08:45:34;;;;;;;5.60;1.10;;;4.60;66.40;;;;;;5002525;28;20534;-64
2022/01/29 08:48:00;;;;;;;2.03;0.57;;;4.60;65.00;;;;;;5001062;28;20030;-70
2022/01/29 08:50:26;;;;;;;2.60;1.02;;;4.50;64.20;;;;;;4996881;28;20034;-71
2022/01/29 08:52:51;;;;;;;3.90;0.88;;;4.50;66.40;;;;;;5001474;28;20500;-71
2022/01/29 08:55:17;;;;;;;3.63;0.90;;;4.70;67.10;;;;;;4998479;28;20034;-72
2022/01/29 08:57:42;;;;;;;8.70;1.10;;;4.90;67.60;;;;;;4999748;28;20077;-70
2022/01/29 09:00:10;;;;;;;4.30;1.10;;;4.90;64.00;;;;;;4998948;28;20040;-70
2022/01/29 09:02:36;;;;;;;3.28;1.00;;;4.90;65.60;;;;;;4997746;28;20563;-72
2022/01/29 09:05:03;;;;;;;2.10;0.68;;;5.10;63.90;;;;;;5001295;28;20033;-73
2022/01/29 09:07:28;;;;;;;4.90;0.75;;;5.00;62.90;;;;;;5003156;28;20034;-71
2022/01/29 09:09:55;;;;;;;3.70;0.90;;;4.70;62.50;;;;;;4995795;28;20038;-71
2022/01/29 09:12:21;;;;;;;2.55;0.80;;;4.60;64.80;;;;;;4995969;28;20034;-71
2022/01/29 09:14:48;;;;;;;5.22;1.00;;;4.60;66.80;;;;;;4999039;28;20030;-71
2022/01/29 09:17:16;;;;;;;1.92;0.70;;;4.60;68.30;;;;;;4997141;28;20037;-72
2022/01/29 09:19:41;;;;;;;2.00;0.50;;;4.60;66.90;;;;;;4996264;28;20038;-71
2022/01/29 09:22:07;;;;;;;3.00;0.75;;;4.80;67.00;;;;;;5001935;28;20034;-72
2022/01/29 09:24:33;;;;;;;3.38;1.00;;;5.00;67.90;;;;;;5002396;28;20065;-73
2022/01/29 09:26:59;;;;;;;2.38;0.70;;;5.10;65.80;;;;;;4999537;28;20058;-71
2022/01/29 09:29:25;;;;;;;2.53;0.98;;;5.20;64.60;;;;;;4996583;28;20041;-73
2022/01/29 09:31:51;;;;;;;4.90;1.15;;;5.20;66.60;;;;;;5002754;28;20046;-72
2022/01/29 09:34:17;;;;;;;2.47;1.20;;;5.10;68.00;;;;;;5001574;28;20026;-73
2022/01/29 09:36:43;;;;;;;4.32;0.93;;;5.00;68.20;;;;;;4999094;28;20037;-73
2022/01/29 09:39:09;;;;;;;2.53;0.80;;;5.00;68.00;;;;;;5000138;28;20030;-73
2022/01/29 09:41:37;;;;;;;5.45;1.10;;;4.90;67.70;;;;;;5002529;28;20112;-72
2022/01/29 09:44:03;;;;;;;4.28;1.27;;;4.90;69.70;;;;;;4997799;28;20033;-73
2022/01/29 09:46:30;;;;;;;3.20;0.95;;;4.70;69.20;;;;;;5001509;28;20034;-73
2022/01/29 09:48:57;;;;;;;1.20;0.60;;;4.70;69.60;;;;;;5004605;28;20018;-73
2022/01/29 09:51:23;;;;;;;5.60;0.95;;;4.60;70.20;;;;;;5001523;28;20125;-73
2022/01/29 09:53:49;;;;;;;4.65;1.02;;;4.60;70.10;;;;;;5000694;28;20117;-73
2022/01/29 09:56:15;;;;;;;4.65;0.88;;;4.50;70.00;;;;;;4999842;28;20057;-73
2022/01/29 09:58:42;;;;;;;5.88;1.60;;;4.40;70.40;;;;;;5003672;28;20097;-72
2022/01/29 10:01:10;;;;;;;3.80;1.15;;;4.50;72.30;;;;;;4999013;28;20053;-72
2022/01/29 10:03:36;;;;;;;5.65;1.38;;;4.50;71.70;;;;;;5001522;28;20037;-72
2022/01/29 10:06:03;;;;;;;4.80;1.10;;;4.50;72.20;;;;;;5001219;28;20026;-72
2022/01/29 10:08:30;;;;;;;6.10;1.65;;;4.60;73.20;;;;;;5002623;28;20069;-71
2022/01/29 10:10:59;;;;;;;3.85;1.10;;;4.50;74.50;;;;;;4997511;28;20046;-73
2022/01/29 10:13:34;;;;;;;6.22;1.27;;;4.60;74.60;;;;;;5002278;28;20032;-72
2022/01/29 10:16:13;;;;;;;4.32;1.10;;;4.50;74.50;;;;;;4998657;28;20030;-72
2022/01/29 10:18:40;;;;;;;5.05;1.27;;;4.50;77.00;;;;;;5001235;28;20115;-73
2022/01/29 10:21:34;;;;;;;8.75;1.70;;;4.60;76.80;;;;;;4998533;28;20607;-71
2022/01/29 10:24:10;;;;;;;5.38;1.45;;;4.60;76.00;;;;;;5000076;28;20069;-72
2022/01/29 10:26:39;;;;;;;7.63;2.17;;;4.60;76.00;;;;;;5001625;28;20022;-72
2022/01/29 10:29:07;;;;;;;7.07;1.85;;;4.50;75.70;;;;;;4998671;28;20030;-72
2022/01/29 10:31:45;;;;;;;7.65;1.48;;;4.40;76.10;;;;;;4999041;28;20081;-71
2022/01/29 10:34:35;;;;;;;5.75;1.83;;;4.50;77.70;;;;;;5015129;28;20369;-72
2022/01/29 10:37:19;;;;;;;4.75;1.23;;;4.40;78.40;;;;;;4994613;28;20435;-71
2022/01/29 10:40:00;;;;;;;5.50;1.80;;;4.30;78.90;;;;;;5003136;28;20034;-72
2022/01/29 10:42:30;;;;;;;7.70;1.80;;;4.30;80.40;;;;;;5001157;28;20033;-72
2022/01/29 10:45:02;;;;;;;5.13;1.70;;;4.30;81.70;;;;;;5004894;28;20022;-70
2022/01/29 10:47:30;;;;;;;6.90;1.95;;;4.30;82.50;;;;;;5002368;28;20022;-72
2022/01/29 10:50:05;;;;;;;7.40;2.35;;;4.20;83.30;;;;;;5002421;28;20037;-71
2022/01/29 10:52:34;;;;;;;7.30;1.73;;;4.10;83.80;;;;;;5002095;28;20037;-72
2022/01/29 10:55:04;;;;;;;7.85;2.28;;;4.00;84.70;;;;;;5003752;28;20025;-73
2022/01/29 10:57:51;;;;;;;6.63;2.25;;;4.00;85.60;;;;;;5001854;28;20042;-72
2022/01/29 11:00:24;;;;;;;10.70;2.50;;;4.10;86.40;;;;;;4996435;28;20574;-72
2022/01/29 11:02:53;;;;;;;15.05;3.00;;;4.10;87.00;;;;;;4985269;28;20045;-73
2022/01/29 11:05:19;;;;;;;7.72;2.33;;;4.10;87.00;;;;;;4989974;28;20051;-74
2022/01/29 11:07:50;;;;;;;9.70;2.30;;;4.20;87.00;;;;;;4993149;28;20046;-73
2022/01/29 11:10:17;;;;;;;11.55;2.55;;;4.30;87.20;;;;;;4996195;28;20041;-73
2022/01/29 11:12:45;;;;;;;8.77;2.63;;;4.30;87.00;;;;;;4995068;28;20710;-72
2022/01/29 11:15:11;;;;;;;9.63;2.58;;;4.30;87.70;;;;;;4997265;28;20060;-72
2022/01/29 11:17:40;;;;;;;8.68;1.98;;;4.40;88.20;;;;;;4997006;28;20052;-71
2022/01/29 11:20:06;;;;;;;8.40;2.50;;;4.40;89.20;;;;;;4999298;28;20064;-71
2022/01/29 11:22:35;;;;;;;10.27;2.47;;;4.30;90.00;;;;;;4995787;28;20101;-73
2022/01/29 11:25:07;;;;;;;10.20;2.30;;;4.40;90.10;;;;;;4998295;28;20416;-71
2022/01/29 11:27:37;;;;;;;8.93;2.72;;;4.30;90.20;;;;;;4996436;28;20050;-73
2022/01/29 11:30:10;;;;;;;9.45;2.83;;;4.20;90.60;;;;;;4997480;28;20405;-73
2022/01/29 11:32:40;;;;;;;9.00;2.40;;;4.30;91.00;;;;;;4997357;28;20042;-72
2022/01/29 11:35:12;;;;;;;8.57;2.63;;;4.30;91.10;;;;;;4995796;28;20056;-71
2022/01/29 11:37:48;;;;;;;11.68;2.28;;;4.30;91.00;;;;;;4996742;28;20861;-73
2022/01/29 11:40:22;;;;;;;8.93;2.45;;;4.50;91.30;;;;;;4994797;28;20119;-73
2022/01/29 11:43:06;;;;;;;8.75;2.45;;;4.50;91.00;;;;;;4992758;28;20776;-73
2022/01/29 11:45:41;;;;;;;9.38;2.38;;;4.60;91.00;;;;;;4996468;28;20054;-72
2022/01/29 11:48:51;;;;;;;7.40;1.98;;;4.60;91.10;;;;;;4990073;28;20148;-72
2022/01/29 11:51:46;;;;;;;10.60;2.10;;;4.50;91.30;;;;;;4996782;28;20061;-71
2022/01/29 11:54:23;;;;;;;12.15;2.58;;;4.50;91.50;;;;;;4995719;28;20061;-71
2022/01/29 11:57:06;;;;;;;9.18;2.13;;;4.50;91.30;;;;;;4996071;28;20041;-72
2022/01/29 11:59:34;;;;;;;8.30;2.15;;;4.50;91.50;;;;;;4998614;28;20050;-73
2022/01/29 12:02:19;;;;;;;8.05;2.35;;;4.50;91.70;;;;;;4998730;28;20392;-74
2022/01/29 12:04:48;;;;;;;9.20;2.92;;;4.40;92.00;;;;;;4996686;28;20096;-73
2022/01/29 12:07:21;;;;;;;7.60;2.55;;;4.40;92.00;;;;;;5003083;28;20034;-74
2022/01/29 12:09:51;;;;;;;10.63;2.50;;;4.40;92.20;;;;;;5001764;28;20038;-75
2022/01/29 12:12:26;;;;;;;9.48;2.72;;;4.50;92.10;;;;;;5001018;28;20022;-74
2022/01/29 12:15:11;;;;;;;11.48;2.63;;;4.50;92.40;;;;;;5003949;28;20033;-73
2022/01/29 12:17:51;;;;;;;9.18;2.67;;;4.60;92.50;;;;;;5003125;28;20048;-72
2022/01/29 12:20:21;;;;;;;9.50;2.83;;;4.60;92.00;;;;;;4997632;28;20030;-73
2022/01/29 12:22:49;;;;;;;8.57;2.72;;;4.70;92.30;;;;;;5000674;28;20033;-74
2022/01/29 12:25:20;;;;;;;9.93;2.78;;;4.80;92.20;;;;;;5004657;28;20037;-74
2022/01/29 12:27:53;;;;;;;17.33;4.82;;;4.90;91.90;;;;;;5002763;28;20496;-73
2022/01/29 12:30:25;;;;;;;9.75;2.55;;;4.90;91.60;;;;;;5002332;28;20049;-74
2022/01/29 12:33:12;;;;;;;10.90;2.88;;;4.90;91.50;;;;;;4999656;28;20535;-72
2022/01/29 12:35:45;;;;;;;11.82;3.85;;;4.90;91.40;;;;;;4998502;28;20081;-73
2022/01/29 12:38:38;;;;;;;12.65;2.58;;;5.00;91.40;;;;;;5000792;28;20117;-73
2022/01/29 12:41:06;;;;;;;11.98;2.50;;;4.80;91.20;;;;;;5004945;28;20057;-74
2022/01/29 12:43:42;;;;;;;10.05;2.60;;;5.00;91.40;;;;;;5001850;28;20030;-73
2022/01/29 12:46:13;;;;;;;12.32;3.15;;;5.00;91.30;;;;;;5002188;28;20671;-72
2022/01/29 12:48:41;;;;;;;9.43;2.38;;;4.90;91.40;;;;;;5000051;28;20034;-72
2022/01/29 12:51:12;;;;;;;8.18;2.53;;;4.80;91.40;;;;;;5002700;28;20069;-73
2022/01/29 12:53:38;;;;;;;8.27;2.30;;;4.80;91.60;;;;;;4997011;28;20033;-73
2022/01/29 12:56:12;;;;;;;10.57;2.47;;;4.80;91.60;;;;;;5002968;28;20400;-73
2022/01/29 12:58:40;;;;;;;10.85;2.30;;;4.80;91.50;;;;;;5002004;28;20566;-73
2022/01/29 13:01:08;;;;;;;8.73;2.28;;;4.90;91.60;;;;;;5001759;28;21199;-74
2022/01/29 13:03:34;;;;;;;9.13;1.90;;;4.90;91.60;;;;;;4999781;28;20030;-73
2022/01/29 13:06:06;;;;;;;9.10;2.08;;;4.90;91.60;;;;;;5002236;28;20022;-72
2022/01/29 13:08:32;;;;;;;11.07;3.08;;;4.90;92.10;;;;;;5000237;28;20057;-73
2022/01/29 13:10:57;;;;;;;8.85;2.60;;;4.80;92.20;;;;;;4997835;28;20077;-73